This is the latest recevied weather packets stored in our database for station/object F5NTS. If no packets are shown the sender has not sent any weather packets the latest 10 day(s).
| Time | Temp. | Humidity | Pressure | Rain* | Wind** | Luminosity | Snow |
|---|---|---|---|---|---|---|---|
| 1777661404 | 18.89° C | 36% | 1016.6 hPa | 0 mm | - | - | - |
| 1777659904 | 20.56° C | 33% | 1016.8 hPa | 0 mm | - | - | - |
| 1777658404 | 21.67° C | 32% | 1016.5 hPa | 0 mm | - | - | - |
| 1777657504 | 22.22° C | 31% | 1016.8 hPa | 0 mm | - | - | - |
| 1777656604 | 22.78° C | 30% | 1016.7 hPa | 0 mm | - | - | - |
| 1777656304 | 22.78° C | 30% | 1016.7 hPa | 0 mm | - | - | - |
| 1777652404 | 27.22° C | 25% | 1017.4 hPa | 0 mm | - | - | - |
| 1777647905 | 28.89° C | 25% | 1017.5 hPa | 0 mm | - | - | - |
| 1777647005 | 28.89° C | 25% | 1017.8 hPa | 0 mm | - | - | - |
| 1777645204 | 28.33° C | 25% | 1017.8 hPa | 0 mm | - | - | - |
| 1777643404 | 28.33° C | 25% | 1018.1 hPa | 0 mm | - | - | - |
| 1777641604 | 27.78° C | 27% | 1018.3 hPa | 0 mm | - | - | - |
| 1777637404 | 25.56° C | 30% | 1018.9 hPa | 0 mm | - | - | - |
| 1777635904 | 24.44° C | 29% | 1018.6 hPa | 0 mm | - | - | - |
| 1777635004 | 24.44° C | 31% | 1018.8 hPa | 0 mm | - | - | - |
| 1777634404 | 23.89° C | 31% | 1018.9 hPa | 0 mm | - | - | - |
| 1777633204 | 23.33° C | 32% | 1019.2 hPa | 0 mm | - | - | - |
| 1777632604 | 23.33° C | 32% | 1019.4 hPa | 0 mm | - | - | - |
| 1777630805 | 22.22° C | 32% | 1019.3 hPa | 0 mm | - | - | - |
| 1777627504 | 20° C | 34% | 1019.5 hPa | 0 mm | - | - | - |
| 1777626305 | 18.89° C | 35% | 1019.7 hPa | 0 mm | - | - | - |
| 1777625104 | 17.78° C | 35% | 1019.6 hPa | 0 mm | - | - | - |
| 1777616104 | 7.78° C | 72% | 1019.4 hPa | 0 mm | - | - | - |
| 1777610404 | 0.56° C | 72% | 1018.8 hPa | 0 mm | - | - | - |
| 1777609505 | 0.56° C | 71% | 1018.9 hPa | 0 mm | - | - | - |
* Rain latest hour (hover to see other rain measurements)
** Current wind speed in m/s (hover to see current wind gust speed)